Terminal Aerodrome Forecast
Issued by NWS Indianapolis, IN

Home | Current Version | Previous Version | Text Only | Print | Product List | Glossary On
Versions: 1 2 3 4 5 6 7 8 9 10 11 12 13 14 15 16 17 18 19 20 21 22 23 24 25 26 27
289
FTUS43 KIND 241039 AAC
TAFIND
TAF AMD
KIND 241039Z 2411/2512 32005KT 4SM BR BKN007 OVC040
      TEMPO 2411/2415 SCT007 OVC040
     FM241500 32005KT P6SM -SHRA BKN040 OVC090
     FM241900 32004KT 5SM SHRA VCTS OVC040CB
     FM250000 31005KT 2SM SHRA OVC010=

USA.gov is the U.S. government's official web portal to all federal, state and local government web resources and services.